createdAt,value
2018-12-22T00:00:59.266Z,78.66
2018-12-22T00:01:59.233Z,78.56
2018-12-22T00:02:59.253Z,78.76
2018-12-22T00:03:59.210Z,79.31
2018-12-22T00:04:59.200Z,79.52
2018-12-22T00:05:59.187Z,79.00
2018-12-22T00:06:59.194Z,79.27
2018-12-22T00:07:59.166Z,79.41
2018-12-22T00:08:59.185Z,79.27
2018-12-22T00:09:59.144Z,79.38
2018-12-22T00:10:59.135Z,79.38
2018-12-22T00:11:59.122Z,79.27
2018-12-22T00:12:59.130Z,79.48
2018-12-22T00:13:59.102Z,79.27
2018-12-22T00:14:59.131Z,78.76
2018-12-22T00:15:59.163Z,79.82
2018-12-22T00:16:59.065Z,79.82
2018-12-22T00:17:59.054Z,79.58
2018-12-22T00:18:59.061Z,79.79
2018-12-22T00:19:59.040Z,79.68
2018-12-22T00:20:59.049Z,80.13
2018-12-22T00:21:59.028Z,79.93
2018-12-22T00:22:59.001Z,79.21
2018-12-22T00:23:58.989Z,78.76
2018-12-22T00:24:58.985Z,79.17
2018-12-22T00:25:58.970Z,79.07
2018-12-22T00:26:58.999Z,78.45
2018-12-22T00:27:58.945Z,78.15
2018-12-22T00:28:58.933Z,78.45
2018-12-22T00:29:58.922Z,78.35
2018-12-22T00:30:58.921Z,78.45
2018-12-22T00:31:58.900Z,78.66
2018-12-22T00:32:58.920Z,78.35
2018-12-22T00:33:58.883Z,78.56
2018-12-22T00:34:58.983Z,78.25
2018-12-22T00:35:58.855Z,78.76
2018-12-22T00:36:58.866Z,79.27
2018-12-22T00:37:58.833Z,79.27
2018-12-22T00:38:58.858Z,79.48
2018-12-22T00:39:58.815Z,79.38
2018-12-22T00:40:58.805Z,79.27
2018-12-22T00:41:58.788Z,78.76
2018-12-22T00:42:58.798Z,79.38
2018-12-22T00:43:58.773Z,79.27
2018-12-22T00:44:58.798Z,79.38
2018-12-22T00:45:58.746Z,79.27
2018-12-22T00:46:58.733Z,79.58
2018-12-22T00:47:58.722Z,77.84
2018-12-22T00:48:58.732Z,78.25
2018-12-22T00:49:58.705Z,78.63
2018-12-22T00:50:58.728Z,78.42
2018-12-22T00:51:58.679Z,77.91
2018-12-22T00:52:58.670Z,78.35
2018-12-22T00:53:58.658Z,78.01
2018-12-22T00:54:58.665Z,78.31
2018-12-22T00:55:58.640Z,78.01
2018-12-22T00:56:58.652Z,77.50
2018-12-22T00:57:58.611Z,77.80
2018-12-22T00:58:58.600Z,77.76
2018-12-22T00:59:58.590Z,77.60
2018-12-22T01:00:58.597Z,77.60
2018-12-22T01:01:58.568Z,77.80
2018-12-22T01:02:58.605Z,78.01
2018-12-22T01:03:58.548Z,78.42
2018-12-22T01:04:58.534Z,78.31
2018-12-22T01:05:58.526Z,77.91
2018-12-22T01:06:58.541Z,77.91
2018-12-22T01:07:58.502Z,77.19
2018-12-22T01:08:58.520Z,77.91
2018-12-22T01:09:58.478Z,78.11
2018-12-22T01:10:58.467Z,77.70
2018-12-22T01:11:58.456Z,77.91
2018-12-22T01:12:58.458Z,77.70
2018-12-22T01:13:58.432Z,78.25
2018-12-22T01:14:58.451Z,77.91
2018-12-22T01:15:58.413Z,78.05
2018-12-22T01:16:58.400Z,77.70
2018-12-22T01:17:58.389Z,77.39
2018-12-22T01:18:58.384Z,77.91
2018-12-22T01:19:58.366Z,77.91
2018-12-22T01:20:58.385Z,77.29
2018-12-22T01:21:58.345Z,77.50
2018-12-22T01:22:58.333Z,76.98
2018-12-22T01:23:58.346Z,77.19
2018-12-22T01:24:58.331Z,76.98
2018-12-22T01:25:58.304Z,77.05
2018-12-22T01:26:58.322Z,77.05
2018-12-22T01:27:58.278Z,77.26
2018-12-22T01:28:58.268Z,76.88
2018-12-22T01:29:58.263Z,77.19
2018-12-22T01:30:58.264Z,77.70
2018-12-22T01:31:58.237Z,77.39
2018-12-22T01:32:58.256Z,78.01
2018-12-22T01:33:58.213Z,78.31
2018-12-22T01:34:58.204Z,78.42
2018-12-22T01:35:58.188Z,77.94
2018-12-22T01:36:58.194Z,78.11
2018-12-22T01:37:58.166Z,77.80
2018-12-22T01:38:58.214Z,78.11
2018-12-22T01:39:58.145Z,78.31
2018-12-22T01:40:58.133Z,78.11
2018-12-22T01:41:58.127Z,77.80
2018-12-22T01:42:58.130Z,77.15
2018-12-22T01:43:58.099Z,77.26
2018-12-22T01:44:58.121Z,77.67
2018-12-22T01:45:58.076Z,77.97
2018-12-22T01:46:58.067Z,77.56
2018-12-22T01:47:58.055Z,77.70
2018-12-22T01:48:58.065Z,77.46
2018-12-22T01:49:58.033Z,78.31
2018-12-22T01:50:58.053Z,78.21
2018-12-22T01:51:58.011Z,77.97
2018-12-22T01:52:57.999Z,77.50
2018-12-22T01:53:57.992Z,77.80
2018-12-22T01:54:58.002Z,77.50
2018-12-22T01:55:57.964Z,77.05
2018-12-22T01:56:57.993Z,76.23
2018-12-22T01:57:57.943Z,75.99
2018-12-22T01:58:57.946Z,76.30
2018-12-22T01:59:57.919Z,76.64
2018-12-22T02:00:57.929Z,77.26
2018-12-22T02:01:57.897Z,77.46
2018-12-22T02:02:57.924Z,77.80
2018-12-22T02:03:57.880Z,77.39
2018-12-22T02:04:57.868Z,77.60
2018-12-22T02:05:57.855Z,77.60
2018-12-22T02:06:57.862Z,77.60
2018-12-22T02:07:57.831Z,77.39
2018-12-22T02:08:57.848Z,77.39
2018-12-22T02:09:57.816Z,78.11
2018-12-22T02:10:57.804Z,78.31
2018-12-22T02:11:57.791Z,78.52
2018-12-22T02:12:57.795Z,78.25
2018-12-22T02:13:57.764Z,77.29
2018-12-22T02:14:57.785Z,77.70
2018-12-22T02:15:57.744Z,77.09
2018-12-22T02:16:57.741Z,76.75
2018-12-22T02:17:57.719Z,76.84
2018-12-22T02:18:57.730Z,76.84
2018-12-22T02:19:57.697Z,76.95
2018-12-22T02:20:57.717Z,77.60
2018-12-22T02:21:57.675Z,78.01
2018-12-22T02:22:57.664Z,78.66
2018-12-22T02:23:57.652Z,77.94
2018-12-22T02:24:57.666Z,78.76
2018-12-22T02:25:57.630Z,78.66
2018-12-22T02:26:57.651Z,78.45
2018-12-22T02:27:57.607Z,77.70
2018-12-22T02:28:57.596Z,77.50
2018-12-22T02:29:57.588Z,77.80
2018-12-22T02:30:57.586Z,78.31
2018-12-22T02:31:57.571Z,78.15
2018-12-22T02:32:57.589Z,78.21
2018-12-22T02:33:57.545Z,77.60
2018-12-22T02:34:57.531Z,77.73
2018-12-22T02:35:57.519Z,77.91
2018-12-22T02:36:57.536Z,78.31
2018-12-22T02:37:57.498Z,78.15
2018-12-22T02:38:57.515Z,78.86
2018-12-22T02:39:57.475Z,77.91
2018-12-22T02:40:57.464Z,77.70
2018-12-22T02:41:57.453Z,77.80
2018-12-22T02:42:57.460Z,77.80
2018-12-22T02:43:57.432Z,77.91
2018-12-22T02:44:57.452Z,77.70
2018-12-22T02:45:57.406Z,77.29
2018-12-22T02:46:57.403Z,77.39
2018-12-22T02:47:57.386Z,77.15
2018-12-22T02:48:57.382Z,77.56
2018-12-22T02:49:57.362Z,78.11
2018-12-22T02:50:57.386Z,78.21
2018-12-22T02:51:57.341Z,78.42
2018-12-22T02:52:57.328Z,78.63
2018-12-22T02:53:57.319Z,77.60
2018-12-22T02:54:57.325Z,78.76
2018-12-22T02:55:57.298Z,78.66
2018-12-22T02:56:57.319Z,78.97
2018-12-22T02:57:57.278Z,78.97
2018-12-22T02:59:05.625Z,78.97
2018-12-22T02:59:58.252Z,78.97
2018-12-22T03:00:57.258Z,79.13
2018-12-22T03:01:57.231Z,78.83
2018-12-22T03:02:57.246Z,78.63
2018-12-22T03:03:57.211Z,78.63
2018-12-22T03:04:57.198Z,78.63
2018-12-22T03:05:57.187Z,79.03
2018-12-22T03:06:57.191Z,78.83
2018-12-22T03:07:59.348Z,78.72
2018-12-22T03:08:57.182Z,78.31
2018-12-22T03:09:57.147Z,78.42
2018-12-22T03:10:57.132Z,78.63
2018-12-22T03:11:57.119Z,79.13
2018-12-22T03:12:57.129Z,78.52
2018-12-22T03:13:57.096Z,79.34
2018-12-22T03:14:57.115Z,78.69
2018-12-22T03:15:57.074Z,78.28
2018-12-22T03:16:57.065Z,78.38
2018-12-22T03:17:57.057Z,77.87
2018-12-22T03:18:57.064Z,77.76
2018-12-22T03:19:57.030Z,77.76
2018-12-22T03:20:57.051Z,78.59
2018-12-22T03:21:57.009Z,78.59
2018-12-22T03:22:56.998Z,77.87
2018-12-22T03:23:56.991Z,78.08
2018-12-22T03:24:56.993Z,78.69
2018-12-22T03:25:56.964Z,79.00
2018-12-22T03:26:56.984Z,79.16
2018-12-22T03:27:56.942Z,79.41
2018-12-22T03:28:56.937Z,79.30
2018-12-22T03:29:56.928Z,79.78
2018-12-22T03:30:56.927Z,81.15
2018-12-22T03:31:56.905Z,82.37
2018-12-22T03:32:56.939Z,83.70
2018-12-22T03:33:56.877Z,84.46
2018-12-22T03:34:56.865Z,85.17
2018-12-22T03:35:56.852Z,85.48
2018-12-22T03:36:56.865Z,85.79
2018-12-22T03:37:56.837Z,86.10
2018-12-22T03:38:56.849Z,86.55
2018-12-22T03:39:56.816Z,87.57
2018-12-22T03:40:56.801Z,87.88
2018-12-22T03:41:56.787Z,87.88
2018-12-22T03:42:56.789Z,87.92
2018-12-22T03:43:56.778Z,87.06
2018-12-22T03:44:56.804Z,87.77
2018-12-22T03:45:56.742Z,87.47
2018-12-22T03:46:56.735Z,87.26
2018-12-22T03:47:56.722Z,87.10
2018-12-22T03:48:56.712Z,87.51
2018-12-22T03:49:56.706Z,87.67
2018-12-22T03:50:56.740Z,87.47
2018-12-22T03:51:56.679Z,87.67
2018-12-22T03:52:56.676Z,87.67
2018-12-22T03:53:56.673Z,87.88
2018-12-22T03:54:56.652Z,86.55
2018-12-22T03:55:56.639Z,86.75
2018-12-22T03:56:56.680Z,87.37
2018-12-22T03:57:56.656Z,86.96
2018-12-22T03:58:56.607Z,86.04
2018-12-22T03:59:56.592Z,86.34
2018-12-22T04:00:56.589Z,86.24
2018-12-22T04:01:56.588Z,86.14
2018-12-22T04:02:56.608Z,86.04
2018-12-22T04:03:56.563Z,86.14
2018-12-22T04:04:56.556Z,86.04
2018-12-22T04:05:56.545Z,85.69
2018-12-22T04:06:56.534Z,85.93
2018-12-22T04:07:56.510Z,85.79
2018-12-22T04:08:56.551Z,86.24
2018-12-22T04:09:56.497Z,86.04
2018-12-22T04:10:56.534Z,86.34
2018-12-22T04:11:56.465Z,86.96
2018-12-22T04:12:56.451Z,87.06
2018-12-22T04:13:56.442Z,87.88
2018-12-22T04:14:56.460Z,87.88
2018-12-22T04:15:56.405Z,87.88
2018-12-22T04:16:56.395Z,87.37
2018-12-22T04:17:56.397Z,87.77
2018-12-22T04:18:56.391Z,87.88
2018-12-22T04:19:56.367Z,87.57
2018-12-22T04:20:56.393Z,86.75
2018-12-22T04:21:56.345Z,86.34
2018-12-22T04:22:56.331Z,86.30
2018-12-22T04:23:56.317Z,86.91
2018-12-22T04:24:56.312Z,86.81
2018-12-22T04:25:56.302Z,86.61
2018-12-22T04:26:56.330Z,87.02
2018-12-22T04:27:56.275Z,86.91
2018-12-22T04:28:56.266Z,86.71
2018-12-22T04:29:56.273Z,85.89
2018-12-22T04:30:56.239Z,86.20
2018-12-22T04:31:56.231Z,85.69
2018-12-22T04:32:56.250Z,85.58
2018-12-22T04:33:56.208Z,85.55
2018-12-22T04:34:56.198Z,83.60
2018-12-22T04:35:56.197Z,82.84
2018-12-22T04:36:56.244Z,83.36
2018-12-22T04:37:56.162Z,82.43
2018-12-22T04:38:56.193Z,82.64
2018-12-22T04:39:56.139Z,83.32
2018-12-22T04:40:56.130Z,82.81
2018-12-22T04:41:56.160Z,83.56
2018-12-22T04:42:56.107Z,83.15
2018-12-22T04:43:56.097Z,83.25
2018-12-22T04:44:56.111Z,83.25
2018-12-22T04:45:56.075Z,83.36
2018-12-22T04:46:56.060Z,83.36
2018-12-22T04:47:56.060Z,82.40
2018-12-22T04:48:56.043Z,83.01
2018-12-22T04:49:56.051Z,82.29
2018-12-22T04:50:56.054Z,81.17
2018-12-22T04:51:56.012Z,81.99
2018-12-22T04:52:56.007Z,82.70
2018-12-22T04:53:55.997Z,81.99
2018-12-22T04:54:55.971Z,81.79
2018-12-22T04:55:55.980Z,82.29
2018-12-22T04:56:55.979Z,82.54
2018-12-22T04:57:55.941Z,81.48
2018-12-22T04:58:55.933Z,81.58
2018-12-22T04:59:55.924Z,82.20
2018-12-22T05:00:55.904Z,81.51
2018-12-22T05:01:55.892Z,81.27
2018-12-22T05:02:56.012Z,81.58
2018-12-22T05:03:55.886Z,81.17
2018-12-22T05:04:55.867Z,81.62
2018-12-22T05:05:55.862Z,81.93
2018-12-22T05:06:55.844Z,82.23
2018-12-22T05:07:55.849Z,81.72
2018-12-22T05:08:55.865Z,81.93
2018-12-22T05:09:55.811Z,81.31
2018-12-22T05:10:55.800Z,81.01
2018-12-22T05:11:55.788Z,80.69
2018-12-22T05:12:55.781Z,81.10
2018-12-22T05:13:55.780Z,80.05
2018-12-22T05:14:55.799Z,79.68
2018-12-22T05:15:55.738Z,80.49
2018-12-22T05:16:55.731Z,80.08
2018-12-22T05:17:55.725Z,79.78
2018-12-22T05:18:55.713Z,79.98
2018-12-22T05:19:55.697Z,78.92
2018-12-22T05:20:55.726Z,79.13
2018-12-22T05:21:55.671Z,79.16
2018-12-22T05:22:55.657Z,79.16
2018-12-22T05:23:55.659Z,79.06
2018-12-22T05:24:55.636Z,78.55
2018-12-22T05:25:55.629Z,78.00
2018-12-22T05:26:55.662Z,78.31
2018-12-22T05:27:55.716Z,78.00
2018-12-22T05:28:55.618Z,78.61
2018-12-22T05:29:55.584Z,78.14
2018-12-22T05:30:55.568Z,78.41
2018-12-22T05:31:55.557Z,78.61
2018-12-22T05:32:55.574Z,78.52
2018-12-22T05:33:55.534Z,78.41
2018-12-22T05:34:55.554Z,79.16
2018-12-22T05:35:55.513Z,79.16
2018-12-22T05:36:55.503Z,79.16
2018-12-22T05:37:55.494Z,78.65
2018-12-22T05:38:55.510Z,78.61
2018-12-22T05:39:55.470Z,78.41
2018-12-22T05:40:55.473Z,78.20
2018-12-22T05:41:55.447Z,78.92
2018-12-22T05:42:55.436Z,78.55
2018-12-22T05:43:55.437Z,78.34
2018-12-22T05:44:55.447Z,78.45
2018-12-22T05:45:55.404Z,78.00
2018-12-22T05:46:55.413Z,78.00
2018-12-22T05:47:55.379Z,77.83
2018-12-22T05:48:55.372Z,78.34
2018-12-22T05:49:55.365Z,78.34
2018-12-22T05:50:55.373Z,79.06
2018-12-22T05:51:55.338Z,79.27
2018-12-22T05:52:55.338Z,79.37
2018-12-22T05:53:55.313Z,79.16
2018-12-22T05:54:55.301Z,79.00
2018-12-22T05:55:55.289Z,79.78
2018-12-22T05:56:55.321Z,79.50
2018-12-22T05:57:55.267Z,79.41
2018-12-22T05:58:55.275Z,79.50
2018-12-22T06:00:00.441Z,79.68
2018-12-22T06:00:56.234Z,79.78
2018-12-22T06:01:55.223Z,79.68
2018-12-22T06:02:55.256Z,79.47
2018-12-22T06:03:55.206Z,79.16
2018-12-22T06:04:55.213Z,79.27
2018-12-22T06:05:55.178Z,79.37
2018-12-22T06:06:55.172Z,79.27
2018-12-22T06:07:55.156Z,79.06
2018-12-22T06:08:55.192Z,78.86
2018-12-22T06:09:55.135Z,78.92
2018-12-22T06:10:55.132Z,78.92
2018-12-22T06:11:55.112Z,79.43
2018-12-22T06:12:55.099Z,81.21
2018-12-22T06:13:55.092Z,80.80
2018-12-22T06:14:55.107Z,81.21
2018-12-22T06:15:55.066Z,80.39
2018-12-22T06:16:55.070Z,81.01
2018-12-22T06:17:55.045Z,81.04
2018-12-22T06:18:55.033Z,80.90
2018-12-22T06:19:55.026Z,82.98
2018-12-22T06:20:55.046Z,83.64
2018-12-22T06:21:54.999Z,83.64
2018-12-22T06:22:55.009Z,83.64
2018-12-22T06:23:54.979Z,83.23
2018-12-22T06:24:54.971Z,83.13
2018-12-22T06:25:54.956Z,82.92
2018-12-22T06:26:54.996Z,83.54
2018-12-22T06:27:54.936Z,83.84
2018-12-22T06:28:54.928Z,84.50
2018-12-22T06:29:54.927Z,84.50
2018-12-22T06:30:54.898Z,84.70
2018-12-22T06:31:54.890Z,84.80
2018-12-22T06:32:54.907Z,84.80
2018-12-22T06:33:54.864Z,85.22
2018-12-22T06:34:54.854Z,84.95
2018-12-22T06:35:54.848Z,85.36
2018-12-22T06:36:54.836Z,85.66
2018-12-22T06:37:54.823Z,85.56
2018-12-22T06:38:54.840Z,85.77
2018-12-22T06:39:54.815Z,85.31
2018-12-22T06:40:54.795Z,85.31
2018-12-22T06:41:54.775Z,84.80
2018-12-22T06:42:54.796Z,85.11
2018-12-22T06:43:54.803Z,84.91
2018-12-22T06:44:54.828Z,84.19
2018-12-22T06:45:54.749Z,84.39
2018-12-22T06:46:54.743Z,83.88
2018-12-22T06:47:54.718Z,83.23
2018-12-22T06:48:54.711Z,83.84
2018-12-22T06:49:54.690Z,83.03
2018-12-22T06:50:54.707Z,83.33
2018-12-22T06:51:54.692Z,83.23
2018-12-22T06:52:54.659Z,83.09
2018-12-22T06:53:54.646Z,82.68
2018-12-22T06:54:54.631Z,82.17
2018-12-22T06:55:54.620Z,82.89
2018-12-22T06:56:54.652Z,82.48
2018-12-22T06:57:54.603Z,82.78
2018-12-22T06:58:54.586Z,82.37
2018-12-22T06:59:54.579Z,82.57
2018-12-22T07:00:54.564Z,82.37
2018-12-22T07:01:54.554Z,83.09
2018-12-22T07:02:54.602Z,83.13
2018-12-22T07:03:54.534Z,82.62
2018-12-22T07:04:54.524Z,82.89
2018-12-22T07:05:54.518Z,83.03
2018-12-22T07:06:54.499Z,82.37
2018-12-22T07:07:54.486Z,82.41
2018-12-22T07:08:54.528Z,83.03
2018-12-22T07:09:54.465Z,83.03
2018-12-22T07:10:54.455Z,82.82
2018-12-22T07:11:54.444Z,82.98
2018-12-22T07:12:54.432Z,83.95
2018-12-22T07:13:54.419Z,84.36
2018-12-22T07:14:54.465Z,85.28
2018-12-22T07:15:54.397Z,85.79
2018-12-22T07:16:54.386Z,86.20
2018-12-22T07:17:54.384Z,86.10
2018-12-22T07:18:54.364Z,86.96
2018-12-22T07:19:54.353Z,87.77
2018-12-22T07:20:54.435Z,87.06
2018-12-22T07:21:54.340Z,86.75
2018-12-22T07:22:54.327Z,86.96
2018-12-22T07:23:54.312Z,87.88
2018-12-22T07:24:54.297Z,87.57
2018-12-22T07:25:54.289Z,87.26
2018-12-22T07:26:54.326Z,87.98
2018-12-22T07:27:54.272Z,88.18
2018-12-22T07:28:54.251Z,87.26
2018-12-22T07:29:54.245Z,87.88
2018-12-22T07:30:54.654Z,87.37
2018-12-22T07:31:54.246Z,87.06
2018-12-22T07:32:57.156Z,87.77
2018-12-22T07:33:54.198Z,86.55
2018-12-22T07:34:54.190Z,85.63
2018-12-22T07:35:54.182Z,84.80
2018-12-22T07:36:54.164Z,83.23
2018-12-22T07:37:54.167Z,81.90
2018-12-22T07:38:54.190Z,82.00
2018-12-22T07:39:54.130Z,83.13
2018-12-22T07:40:54.273Z,85.72
2018-12-22T07:41:54.107Z,85.31
2018-12-22T07:42:54.097Z,85.63
2018-12-22T07:43:54.085Z,84.39
2018-12-22T07:44:54.105Z,85.46
2018-12-22T07:45:55.819Z,85.56
2018-12-22T07:46:57.569Z,86.18
2018-12-22T07:47:54.428Z,87.85
2018-12-22T07:48:54.205Z,87.85
2018-12-22T07:49:54.020Z,89.43
2018-12-22T07:50:54.054Z,89.48
2018-12-22T07:51:53.996Z,89.37
2018-12-22T07:52:53.987Z,89.83
2018-12-22T07:53:53.976Z,90.03
2018-12-22T07:54:53.966Z,89.93
2018-12-22T07:55:53.956Z,91.16
2018-12-22T07:56:53.973Z,91.20
2018-12-22T07:57:53.930Z,91.82
2018-12-22T07:58:53.928Z,91.41
2018-12-22T07:59:53.914Z,91.93
2018-12-22T08:00:53.939Z,91.72
2018-12-22T08:01:53.913Z,91.25
2018-12-22T08:02:53.913Z,91.76
2018-12-22T08:03:53.866Z,91.97
2018-12-22T08:04:53.855Z,92.27
2018-12-22T08:05:53.842Z,91.66
2018-12-22T08:06:53.847Z,91.55
2018-12-22T08:07:53.825Z,91.14
2018-12-22T08:08:53.838Z,91.35
2018-12-22T08:09:53.800Z,90.69
2018-12-22T08:10:53.787Z,90.18
2018-12-22T08:11:53.777Z,90.28
2018-12-22T08:12:53.844Z,89.97
2018-12-22T08:13:53.764Z,90.48
2018-12-22T08:14:53.802Z,91.20
2018-12-22T08:15:53.735Z,90.28
2018-12-22T08:16:53.722Z,89.76
2018-12-22T08:17:53.713Z,89.76
2018-12-22T08:18:53.721Z,90.18
2018-12-22T08:19:53.689Z,90.38
2018-12-22T08:20:53.722Z,90.08
2018-12-22T08:21:53.668Z,90.08
2018-12-22T08:22:53.655Z,90.18
2018-12-22T08:23:53.648Z,90.18
2018-12-22T08:24:53.660Z,90.55
2018-12-22T08:25:53.627Z,89.72
2018-12-22T08:26:53.645Z,90.14
2018-12-22T08:27:53.609Z,90.65
2018-12-22T08:28:53.592Z,91.37
2018-12-22T08:29:53.579Z,91.47
2018-12-22T08:30:53.586Z,90.95
2018-12-22T08:31:53.558Z,90.95
2018-12-22T08:32:53.598Z,91.57
2018-12-22T08:33:53.534Z,91.16
2018-12-22T08:34:53.524Z,91.37
2018-12-22T08:35:53.511Z,91.78
2018-12-22T08:36:54.538Z,91.27
2018-12-22T08:37:53.492Z,91.37
2018-12-22T08:38:53.506Z,91.88
2018-12-22T08:39:53.467Z,91.37
2018-12-22T08:40:53.457Z,91.78
2018-12-22T08:41:53.446Z,91.67
2018-12-22T08:42:53.440Z,91.47
2018-12-22T08:43:53.427Z,91.88
2018-12-22T08:44:53.469Z,91.47
2018-12-22T08:45:53.437Z,91.42
2018-12-22T08:46:53.411Z,91.88
2018-12-22T08:47:53.398Z,91.47
2018-12-22T08:48:53.389Z,91.22
2018-12-22T08:49:53.358Z,91.63
2018-12-22T08:50:53.383Z,91.57
2018-12-22T08:51:53.357Z,92.19
2018-12-22T08:52:53.340Z,91.84
2018-12-22T08:53:53.319Z,92.40
2018-12-22T08:54:53.309Z,92.46
2018-12-22T08:55:53.295Z,91.94
2018-12-22T08:56:53.321Z,92.50
2018-12-22T08:57:53.278Z,92.25
2018-12-22T08:58:53.261Z,91.94
2018-12-22T08:59:53.247Z,92.04
2018-12-22T09:00:53.243Z,92.04
2018-12-22T09:01:53.229Z,92.25
2018-12-22T09:02:53.265Z,92.04
2018-12-22T09:03:53.207Z,92.35
2018-12-22T09:04:53.195Z,92.55
2018-12-22T09:05:53.186Z,92.76
2018-12-22T09:06:53.193Z,92.14
2018-12-22T09:07:53.174Z,91.74
2018-12-22T09:08:53.997Z,92.46
2018-12-22T09:09:53.155Z,92.25
2018-12-22T09:10:53.144Z,91.90
2018-12-22T09:11:53.124Z,91.90
2018-12-22T09:12:53.104Z,91.69
2018-12-22T09:13:53.098Z,91.90
2018-12-22T09:14:53.121Z,92.21
2018-12-22T09:15:53.072Z,92.00
2018-12-22T09:16:53.079Z,91.80
2018-12-22T09:17:53.058Z,91.96
2018-12-22T09:18:53.045Z,91.69
2018-12-22T09:19:53.027Z,91.24
2018-12-22T09:20:53.060Z,92.00
2018-12-22T09:21:53.008Z,92.10
2018-12-22T09:22:52.991Z,92.00
2018-12-22T09:23:52.993Z,91.69
2018-12-22T09:24:53.013Z,91.69
2018-12-22T09:25:52.968Z,92.31
2018-12-22T09:26:52.987Z,92.10
2018-12-22T09:27:52.939Z,91.59
2018-12-22T09:28:52.929Z,91.90
2018-12-22T09:29:52.926Z,92.16
2018-12-22T09:31:00.571Z,91.24
2018-12-22T09:31:53.932Z,91.96
2018-12-22T09:32:52.883Z,91.75
2018-12-22T09:33:52.873Z,91.44
2018-12-22T09:34:52.856Z,92.16
2018-12-22T09:35:52.850Z,91.69
2018-12-22T09:36:52.836Z,91.55
2018-12-22T09:37:52.876Z,91.69
2018-12-22T09:38:52.818Z,92.10
2018-12-22T09:39:52.812Z,92.61
2018-12-22T09:40:52.792Z,92.41
2018-12-22T09:41:52.790Z,92.93
2018-12-22T09:42:52.779Z,93.13
2018-12-22T09:43:52.821Z,93.64
2018-12-22T09:44:52.757Z,93.44
2018-12-22T09:45:52.739Z,93.85
2018-12-22T09:46:52.750Z,93.95
2018-12-22T09:47:52.713Z,93.17
2018-12-22T09:48:52.701Z,92.97
2018-12-22T09:49:52.831Z,91.33
2018-12-22T09:50:52.684Z,90.24
2018-12-22T09:51:52.669Z,90.85
2018-12-22T09:52:52.661Z,91.78
2018-12-22T09:53:52.656Z,91.31
2018-12-22T09:54:52.634Z,91.41
2018-12-22T09:55:52.670Z,92.07
2018-12-22T09:56:52.629Z,91.86
2018-12-22T09:57:52.613Z,91.66
2018-12-22T09:58:52.639Z,92.38
2018-12-22T09:59:52.579Z,92.48
2018-12-22T10:00:52.575Z,92.79
2018-12-22T10:01:52.662Z,92.99
2018-12-22T10:02:52.548Z,92.79
2018-12-22T10:03:52.546Z,93.10
2018-12-22T10:04:52.565Z,93.10
2018-12-22T10:05:52.517Z,93.10
2018-12-22T10:06:52.505Z,93.16
2018-12-22T10:07:52.525Z,93.67
2018-12-22T10:08:52.512Z,93.36
2018-12-22T10:09:52.477Z,93.36
2018-12-22T10:10:52.463Z,93.67
2018-12-22T10:11:52.445Z,93.36
2018-12-22T10:12:52.444Z,93.26
2018-12-22T10:13:52.455Z,93.52
2018-12-22T10:14:52.419Z,93.12
2018-12-22T10:15:52.405Z,93.21
2018-12-22T10:16:52.392Z,93.12
2018-12-22T10:17:52.379Z,92.60
2018-12-22T10:18:52.391Z,93.12
2018-12-22T10:19:52.396Z,92.55
2018-12-22T10:20:52.359Z,92.04
2018-12-22T10:21:52.347Z,92.55
2018-12-22T10:22:52.326Z,92.93
2018-12-22T10:23:52.311Z,92.41
2018-12-22T10:24:52.304Z,92.21
2018-12-22T10:25:52.323Z,92.31
2018-12-22T10:26:52.285Z,92.31
2018-12-22T10:27:52.278Z,92.51
2018-12-22T10:28:52.256Z,92.82
2018-12-22T10:29:52.252Z,92.82
2018-12-22T10:30:52.244Z,92.31
2018-12-22T10:31:52.258Z,93.02
2018-12-22T10:32:52.224Z,93.02
2018-12-22T10:33:52.213Z,92.51
2018-12-22T10:34:52.193Z,92.72
2018-12-22T10:35:52.185Z,92.93
2018-12-22T10:36:52.171Z,92.61
2018-12-22T10:37:52.186Z,92.47
2018-12-22T10:38:52.166Z,90.77
2018-12-22T10:39:52.146Z,90.11
2018-12-22T10:40:52.153Z,90.42
2018-12-22T10:41:52.114Z,88.33
2018-12-22T10:42:52.103Z,89.04
2018-12-22T10:43:52.132Z,87.57
2018-12-22T10:44:52.090Z,86.14
2018-12-22T10:45:52.090Z,87.53
2018-12-22T10:46:52.067Z,88.70
2018-12-22T10:47:52.049Z,88.39
2018-12-22T10:48:52.032Z,85.93
2018-12-22T10:49:52.065Z,86.04
2018-12-22T10:50:52.011Z,85.52
2018-12-22T10:51:52.011Z,85.69
2018-12-22T10:52:51.996Z,85.28
2018-12-22T10:53:51.984Z,84.46
2018-12-22T10:54:51.966Z,84.36
2018-12-22T10:55:51.987Z,83.70
2018-12-22T10:56:51.944Z,84.11
2018-12-22T10:57:51.932Z,84.11
2018-12-22T10:58:51.967Z,82.98
2018-12-22T10:59:51.912Z,83.39
2018-12-22T11:00:51.931Z,83.70
2018-12-22T11:01:51.921Z,84.31
2018-12-22T11:02:51.905Z,83.36
2018-12-22T11:03:51.869Z,80.80
2018-12-22T11:04:51.888Z,82.78
2018-12-22T11:05:51.853Z,82.64
2018-12-22T11:06:51.834Z,82.89
2018-12-22T11:07:51.860Z,82.48
2018-12-22T11:08:51.832Z,82.78
2018-12-22T11:09:51.809Z,82.48
2018-12-22T11:10:51.801Z,82.48
2018-12-22T11:11:51.808Z,81.04
2018-12-22T11:12:51.771Z,80.80
2018-12-22T11:13:51.821Z,79.71
2018-12-22T11:14:51.762Z,79.71
2018-12-22T11:15:51.736Z,79.00
2018-12-22T11:16:51.726Z,79.88
2018-12-22T11:17:51.722Z,79.91
2018-12-22T11:18:51.705Z,81.24
2018-12-22T11:19:51.735Z,81.04
2018-12-22T11:20:51.677Z,80.22
2018-12-22T11:21:51.900Z,80.53
2018-12-22T11:22:51.874Z,80.22
2018-12-22T11:23:51.908Z,79.71
2018-12-22T11:24:51.639Z,78.34
2018-12-22T11:25:51.656Z,78.14
2018-12-22T11:26:51.676Z,78.45
2018-12-22T11:27:51.597Z,79.57
2018-12-22T11:28:51.589Z,78.04
2018-12-22T11:29:51.578Z,78.45
2018-12-22T11:30:51.568Z,79.16
2018-12-22T11:31:51.648Z,79.30
2018-12-22T11:32:51.544Z,79.78
2018-12-22T11:33:51.556Z,79.37
2018-12-22T11:34:51.602Z,76.91
2018-12-22T11:35:51.636Z,78.24
2018-12-22T11:36:51.513Z,77.94
2018-12-22T11:37:51.593Z,77.94
2018-12-22T11:38:51.598Z,78.34
2018-12-22T11:39:51.467Z,77.70
2018-12-22T11:40:51.490Z,78.00
2018-12-22T11:41:51.450Z,77.83
2018-12-22T11:42:51.434Z,76.98
2018-12-22T11:43:51.459Z,77.90
2018-12-22T11:44:51.464Z,78.20
2018-12-22T11:45:51.482Z,77.80
2018-12-22T11:46:51.388Z,77.19
2018-12-22T11:47:51.416Z,77.80
2018-12-22T11:48:51.370Z,78.11
2018-12-22T11:49:51.385Z,77.29
2018-12-22T11:50:51.344Z,77.70
2018-12-22T11:51:51.339Z,77.76
2018-12-22T11:52:51.327Z,78.07
2018-12-22T11:53:51.318Z,77.97
2018-12-22T11:54:51.349Z,77.86
2018-12-22T11:55:51.348Z,76.64
2018-12-22T11:56:51.281Z,76.84
2018-12-22T11:57:51.281Z,77.72
2018-12-22T11:58:51.261Z,77.83
2018-12-22T11:59:51.245Z,76.50
2018-12-22T12:00:51.282Z,75.17
2018-12-22T12:01:51.279Z,77.42
2018-12-22T12:02:51.216Z,78.34
2018-12-22T12:03:51.361Z,75.78
2018-12-22T12:04:51.191Z,76.50
2018-12-22T12:05:51.196Z,76.46
2018-12-22T12:06:51.170Z,75.89
2018-12-22T12:07:51.200Z,76.09
2018-12-22T12:08:51.147Z,75.85
2018-12-22T12:09:51.135Z,75.27
2018-12-22T12:10:51.134Z,74.56
2018-12-22T12:11:51.124Z,75.89
2018-12-22T12:12:51.106Z,76.36
2018-12-22T12:13:51.123Z,76.29
2018-12-22T12:14:51.084Z,75.65
2018-12-22T12:15:51.074Z,75.78
2018-12-22T12:16:51.063Z,75.99
2018-12-22T12:17:51.054Z,77.42
2018-12-22T12:18:51.056Z,75.48
2018-12-22T12:19:51.075Z,75.89
2018-12-22T12:20:51.025Z,75.07
2018-12-22T12:21:51.012Z,76.19
2018-12-22T12:22:51.004Z,75.89
2018-12-22T12:23:50.982Z,75.92
2018-12-22T12:24:50.979Z,76.23
2018-12-22T12:25:51.004Z,76.33
2018-12-22T12:26:50.968Z,76.43
2018-12-22T12:27:50.953Z,76.33
2018-12-22T12:28:50.930Z,76.94
2018-12-22T12:29:50.924Z,77.15
2018-12-22T12:30:50.917Z,78.27
2018-12-22T12:31:52.171Z,78.17
2018-12-22T12:32:50.888Z,76.53
2018-12-22T12:33:50.868Z,76.84
2018-12-22T12:34:50.866Z,76.06
2018-12-22T12:35:50.855Z,76.98
2018-12-22T12:36:50.840Z,76.81
2018-12-22T12:37:50.866Z,77.49
2018-12-22T12:38:50.820Z,76.81
2018-12-22T12:39:50.807Z,77.83
2018-12-22T12:40:50.801Z,78.04
2018-12-22T12:41:50.788Z,78.55
2018-12-22T12:42:50.785Z,77.56
2018-12-22T12:43:50.795Z,77.01
2018-12-22T12:44:50.800Z,77.12
2018-12-22T12:45:50.742Z,77.83
2018-12-22T12:46:50.745Z,78.04
2018-12-22T12:47:50.718Z,78.14
2018-12-22T12:48:50.725Z,77.94
2018-12-22T12:49:50.740Z,77.49
2018-12-22T12:50:50.687Z,77.70
2018-12-22T12:51:50.680Z,78.31
2018-12-22T12:52:50.672Z,77.39